Time;durP1;ratioP1;P1;durP2;ratioP2;P2;SDS_P1;SDS_P2;PMS_P1;PMS_P2;Temp;Humidity;BMP_temperature;BMP_pressure;BME280_temperature;BME280_humidity;BME280_pressure;Samples;Min_cycle;Max_cycle;Signal;HPM_P1;HPM_P2
2024/01/29 00:00:24;;;;;;;13.55;8.82;;;5.70;68.20;;;;;;5094392;28;20030;-71
2024/01/29 00:02:49;;;;;;;16.20;8.90;;;5.70;68.30;;;;;;5076027;28;20028;-71
2024/01/29 00:05:15;;;;;;;14.13;9.07;;;5.70;68.30;;;;;;5093867;28;20104;-70
2024/01/29 00:07:41;;;;;;;14.55;9.10;;;5.70;68.20;;;;;;5093975;28;20020;-71
2024/01/29 00:10:07;;;;;;;13.73;8.40;;;5.70;68.30;;;;;;5093965;28;20035;-72
2024/01/29 00:12:33;;;;;;;12.95;7.47;;;5.60;68.30;;;;;;5076779;28;20027;-72
2024/01/29 00:14:59;;;;;;;12.60;8.38;;;5.60;68.30;;;;;;5075915;28;20362;-72
2024/01/29 00:17:25;;;;;;;12.80;8.45;;;5.60;68.30;;;;;;5076284;28;20025;-71
2024/01/29 00:19:51;;;;;;;13.35;7.43;;;5.70;68.30;;;;;;5094111;28;20099;-71
2024/01/29 00:22:16;;;;;;;11.10;7.63;;;5.60;68.30;;;;;;5075812;28;20024;-71
2024/01/29 00:24:42;;;;;;;12.60;8.00;;;5.60;68.30;;;;;;5075674;28;20027;-71
2024/01/29 00:27:08;;;;;;;14.13;9.18;;;5.60;68.30;;;;;;5093656;28;20021;-72
2024/01/29 00:29:34;;;;;;;12.85;8.52;;;5.60;68.30;;;;;;5093753;28;20039;-72
2024/01/29 00:32:00;;;;;;;13.45;8.20;;;5.60;68.30;;;;;;5075748;28;20097;-70
2024/01/29 00:34:25;;;;;;;14.38;8.95;;;5.60;68.30;;;;;;5077283;28;20016;-71
2024/01/29 00:36:51;;;;;;;11.50;7.63;;;5.60;68.30;;;;;;5097604;28;20024;-72
2024/01/29 00:39:17;;;;;;;12.57;8.18;;;5.70;68.30;;;;;;5097625;28;20024;-71
2024/01/29 00:41:43;;;;;;;13.15;7.75;;;5.60;68.30;;;;;;5079613;28;20077;-72
2024/01/29 00:44:08;;;;;;;12.88;8.13;;;5.60;68.30;;;;;;5097708;28;20024;-70
2024/01/29 00:46:38;;;;;;;14.23;8.90;;;5.60;68.30;;;;;;5097678;28;20031;-72
2024/01/29 00:49:04;;;;;;;12.48;8.60;;;5.60;68.90;;;;;;5097487;28;20024;-72
2024/01/29 00:51:30;;;;;;;11.80;7.93;;;5.60;68.40;;;;;;5097983;28;20020;-71
2024/01/29 00:53:55;;;;;;;14.35;8.38;;;5.50;68.40;;;;;;5097875;28;20011;-70
2024/01/29 00:56:21;;;;;;;13.63;8.50;;;5.60;68.50;;;;;;5097923;28;20513;-71
2024/01/29 00:58:47;;;;;;;13.07;8.10;;;5.60;68.40;;;;;;5097612;28;20560;-71
2024/01/29 01:01:13;;;;;;;13.25;8.95;;;5.60;68.50;;;;;;5097634;28;20016;-71
2024/01/29 01:03:39;;;;;;;12.55;7.95;;;5.60;68.40;;;;;;5097097;28;20454;-70
2024/01/29 01:06:04;;;;;;;12.63;8.13;;;5.60;68.40;;;;;;5097208;28;20028;-71
2024/01/29 01:08:30;;;;;;;11.90;7.88;;;5.60;68.30;;;;;;5097201;28;20103;-71
2024/01/29 01:10:56;;;;;;;11.93;8.30;;;5.60;68.30;;;;;;5097290;28;20016;-71
2024/01/29 01:13:22;;;;;;;10.93;7.47;;;5.60;68.30;;;;;;5079297;28;20468;-70
2024/01/29 01:15:48;;;;;;;13.02;8.25;;;5.60;68.30;;;;;;5079619;28;20403;-70
2024/01/29 01:18:13;;;;;;;12.18;8.40;;;5.60;68.20;;;;;;5097391;28;20058;-70
2024/01/29 01:20:39;;;;;;;11.70;7.85;;;5.60;68.20;;;;;;5079323;28;20439;-71
2024/01/29 01:23:05;;;;;;;14.40;8.38;;;5.60;68.20;;;;;;5078801;28;20016;-71
2024/01/29 01:25:31;;;;;;;12.05;8.07;;;5.60;68.20;;;;;;5097086;28;20024;-71
2024/01/29 01:27:57;;;;;;;11.93;7.38;;;5.60;68.20;;;;;;5096884;28;20519;-71
2024/01/29 01:30:23;;;;;;;11.95;7.70;;;5.60;68.20;;;;;;5078748;28;20043;-71
2024/01/29 01:32:49;;;;;;;11.57;7.63;;;5.60;68.20;;;;;;5096883;28;20028;-71
2024/01/29 01:35:15;;;;;;;11.57;7.70;;;5.60;68.30;;;;;;5078579;28;20024;-72
2024/01/29 01:37:41;;;;;;;11.75;7.88;;;5.60;68.30;;;;;;5078549;28;20056;-71
2024/01/29 01:40:08;;;;;;;12.60;8.27;;;5.60;68.20;;;;;;5096726;28;20055;-71
2024/01/29 01:42:34;;;;;;;11.07;7.53;;;5.60;68.20;;;;;;5096317;28;20020;-71
2024/01/29 01:45:00;;;;;;;12.40;8.13;;;5.60;68.10;;;;;;5078976;28;20031;-70
2024/01/29 01:47:26;;;;;;;10.13;6.78;;;5.70;68.20;;;;;;5095732;28;20465;-72
2024/01/29 01:49:52;;;;;;;11.30;7.60;;;5.60;68.00;;;;;;5096044;28;20027;-70
2024/01/29 01:52:19;;;;;;;12.02;8.30;;;5.70;68.10;;;;;;5096206;28;20032;-71
2024/01/29 01:54:46;;;;;;;11.52;8.30;;;5.60;68.00;;;;;;5078278;28;20109;-72
2024/01/29 01:57:12;;;;;;;11.63;7.70;;;5.60;68.00;;;;;;5078205;28;20027;-70
2024/01/29 01:59:39;;;;;;;11.38;7.93;;;5.60;68.10;;;;;;5096599;28;20044;-71
2024/01/29 02:02:07;;;;;;;12.73;7.95;;;5.60;68.10;;;;;;5078172;28;20020;-71
2024/01/29 02:04:33;;;;;;;10.57;7.43;;;5.60;68.10;;;;;;5078039;28;20414;-72
2024/01/29 02:06:59;;;;;;;11.60;8.23;;;5.60;68.20;;;;;;5078083;28;20062;-70
2024/01/29 02:09:26;;;;;;;11.05;7.78;;;5.60;68.10;;;;;;5077883;28;20028;-70
2024/01/29 02:11:51;;;;;;;10.70;7.28;;;5.60;68.10;;;;;;5096092;28;20012;-71
2024/01/29 02:14:17;;;;;;;11.95;8.00;;;5.60;68.00;;;;;;5095770;28;20023;-71
2024/01/29 02:16:43;;;;;;;11.00;7.57;;;5.60;68.00;;;;;;5096042;28;20051;-71
2024/01/29 02:19:18;;;;;;;11.02;7.68;;;5.60;68.00;;;;;;5095918;28;20032;-71
2024/01/29 02:21:44;;;;;;;11.65;7.30;;;5.60;68.00;;;;;;5078389;28;20320;-71
2024/01/29 02:24:10;;;;;;;11.18;7.70;;;5.60;68.00;;;;;;5095509;28;20102;-71
2024/01/29 02:26:36;;;;;;;11.07;7.25;;;5.60;68.30;;;;;;5077925;28;20063;-71
2024/01/29 02:29:02;;;;;;;11.30;7.35;;;5.60;68.00;;;;;;5077465;28;20433;-72
2024/01/29 02:31:28;;;;;;;9.60;7.00;;;5.60;68.00;;;;;;5095968;28;20020;-71
2024/01/29 02:33:53;;;;;;;12.18;7.72;;;5.60;68.00;;;;;;5095980;28;20016;-71
2024/01/29 02:36:19;;;;;;;11.52;7.53;;;5.60;67.90;;;;;;5077482;28;20027;-71
2024/01/29 02:38:45;;;;;;;10.73;7.22;;;5.70;68.00;;;;;;5095387;28;20020;-72
2024/01/29 02:41:11;;;;;;;10.77;7.03;;;5.60;67.90;;;;;;5095870;28;20065;-70
2024/01/29 02:43:36;;;;;;;8.93;6.35;;;5.60;68.00;;;;;;5095548;28;20366;-71
2024/01/29 02:46:02;;;;;;;9.90;6.53;;;5.60;68.00;;;;;;5095196;28;20024;-72
2024/01/29 02:48:28;;;;;;;9.63;6.85;;;5.60;68.00;;;;;;5095157;28;20089;-71
2024/01/29 02:50:54;;;;;;;10.27;6.72;;;5.60;68.00;;;;;;5095250;28;20454;-71
2024/01/29 02:53:20;;;;;;;11.57;7.13;;;5.70;68.00;;;;;;5077081;28;20024;-71
2024/01/29 02:55:46;;;;;;;9.07;6.45;;;5.70;67.90;;;;;;5076872;28;20059;-71
2024/01/29 02:58:11;;;;;;;10.20;7.20;;;5.70;67.90;;;;;;5094871;28;20040;-70
2024/01/29 03:00:37;;;;;;;10.13;7.00;;;5.60;67.90;;;;;;5095287;28;20519;-71
2024/01/29 03:03:03;;;;;;;10.68;7.35;;;5.60;67.90;;;;;;5094426;28;20039;-71
2024/01/29 03:05:29;;;;;;;8.63;6.20;;;5.60;68.50;;;;;;5076833;28;20027;-70
2024/01/29 03:07:55;;;;;;;10.48;6.68;;;5.60;67.90;;;;;;5076762;28;20024;-71
2024/01/29 03:10:21;;;;;;;10.10;6.97;;;5.60;67.90;;;;;;5094640;28;20477;-71
2024/01/29 03:12:46;;;;;;;11.43;6.75;;;5.60;67.90;;;;;;5077176;28;20035;-72
2024/01/29 03:15:13;;;;;;;9.68;6.93;;;5.60;67.90;;;;;;5095478;28;20080;-71
2024/01/29 03:17:38;;;;;;;8.77;6.32;;;5.60;67.90;;;;;;5094617;28;20081;-71
2024/01/29 03:20:05;;;;;;;9.98;6.70;;;5.60;67.90;;;;;;5076454;28;20114;-72
2024/01/29 03:22:31;;;;;;;9.75;6.93;;;5.60;67.90;;;;;;5094871;28;20024;-71
2024/01/29 03:24:56;;;;;;;9.85;6.57;;;5.60;67.90;;;;;;5076323;28;20461;-71
2024/01/29 03:27:22;;;;;;;10.40;6.72;;;5.60;67.80;;;;;;5095043;28;20149;-71
2024/01/29 03:29:48;;;;;;;10.73;6.82;;;5.60;67.90;;;;;;5076334;28;20185;-71
2024/01/29 03:32:14;;;;;;;8.82;6.32;;;5.60;67.90;;;;;;5093607;28;20093;-71
2024/01/29 03:34:43;;;;;;;9.77;6.43;;;5.60;67.90;;;;;;5094652;28;20024;-72
2024/01/29 03:37:09;;;;;;;7.82;6.00;;;5.60;67.80;;;;;;5094152;28;20020;-70
2024/01/29 03:39:34;;;;;;;8.55;6.45;;;5.70;67.90;;;;;;5076956;28;20350;-70
2024/01/29 03:42:00;;;;;;;10.02;6.72;;;5.70;67.80;;;;;;5076347;28;20030;-71
2024/01/29 03:44:26;;;;;;;9.77;7.07;;;5.70;67.80;;;;;;5076295;28;20016;-70
2024/01/29 03:46:52;;;;;;;10.23;6.72;;;5.70;67.80;;;;;;5076820;28;20407;-71
2024/01/29 03:49:17;;;;;;;9.20;6.85;;;5.60;67.70;;;;;;5076113;28;20412;-71
2024/01/29 03:51:43;;;;;;;11.07;6.63;;;5.70;67.80;;;;;;5094060;28;20461;-71
2024/01/29 03:54:09;;;;;;;9.80;6.88;;;5.60;67.70;;;;;;5094499;28;20469;-70
2024/01/29 03:56:35;;;;;;;10.55;6.78;;;5.60;68.30;;;;;;5094289;28;20016;-71
2024/01/29 03:59:00;;;;;;;8.85;5.95;;;5.60;67.70;;;;;;5094183;28;20047;-71
2024/01/29 04:01:27;;;;;;;9.55;6.43;;;5.70;67.80;;;;;;5094112;28;20031;-71
2024/01/29 04:03:53;;;;;;;9.52;6.47;;;5.70;67.80;;;;;;5075235;28;20438;-71
2024/01/29 04:06:19;;;;;;;9.93;6.57;;;5.70;67.80;;;;;;5075959;28;20027;-70
2024/01/29 04:08:45;;;;;;;10.20;6.68;;;5.60;67.70;;;;;;5093750;28;20016;-72
2024/01/29 04:11:11;;;;;;;9.52;7.05;;;5.70;67.70;;;;;;5075727;28;20020;-71
2024/01/29 04:13:37;;;;;;;10.30;6.55;;;5.70;67.70;;;;;;5094050;28;20020;-72
2024/01/29 04:16:04;;;;;;;10.68;7.40;;;5.70;67.70;;;;;;5075697;28;20020;-71
2024/01/29 04:18:30;;;;;;;9.30;6.60;;;5.60;67.70;;;;;;5093852;28;20020;-71
2024/01/29 04:20:56;;;;;;;9.52;6.57;;;5.60;67.70;;;;;;5075810;28;20024;-71
2024/01/29 04:23:22;;;;;;;8.65;6.20;;;5.60;67.70;;;;;;5075675;28;20023;-71
2024/01/29 04:25:48;;;;;;;8.88;6.20;;;5.60;67.70;;;;;;5094056;28;20028;-71
2024/01/29 04:28:13;;;;;;;8.52;5.93;;;5.60;67.80;;;;;;5075792;28;20031;-70
2024/01/29 04:30:40;;;;;;;8.65;6.55;;;5.60;67.80;;;;;;5075824;28;20032;-71
2024/01/29 04:33:05;;;;;;;8.77;6.60;;;5.60;67.80;;;;;;5075872;28;20032;-72
2024/01/29 04:35:31;;;;;;;9.25;6.05;;;5.60;67.80;;;;;;5093847;28;20438;-71
2024/01/29 04:37:57;;;;;;;9.07;6.53;;;5.70;67.80;;;;;;5093386;28;20052;-71
2024/01/29 04:40:23;;;;;;;9.45;6.53;;;5.70;67.80;;;;;;5093638;28;20050;-71
2024/01/29 04:42:49;;;;;;;9.50;6.55;;;5.70;67.70;;;;;;5093704;28;20024;-71
2024/01/29 04:45:15;;;;;;;10.95;7.70;;;5.70;67.70;;;;;;5093813;28;20044;-71
2024/01/29 04:47:40;;;;;;;10.43;6.40;;;5.70;68.30;;;;;;5075666;28;20055;-73
2024/01/29 04:50:07;;;;;;;11.07;7.68;;;5.70;67.70;;;;;;5075252;28;20057;-71
2024/01/29 04:52:32;;;;;;;9.77;7.22;;;5.70;67.70;;;;;;5093441;28;20366;-70
2024/01/29 04:54:59;;;;;;;9.13;6.60;;;5.70;67.70;;;;;;5093142;28;20020;-71
2024/01/29 04:57:24;;;;;;;10.18;6.78;;;5.70;67.70;;;;;;5075391;28;20035;-72
2024/01/29 04:59:50;;;;;;;9.35;6.55;;;5.70;67.70;;;;;;5093734;28;20048;-70
2024/01/29 05:02:17;;;;;;;9.50;6.63;;;5.70;67.70;;;;;;5093601;28;20020;-72
2024/01/29 05:04:43;;;;;;;10.45;6.50;;;5.70;67.70;;;;;;5075279;28;20347;-72
2024/01/29 05:07:08;;;;;;;10.27;6.75;;;5.70;67.70;;;;;;5093523;28;20111;-71
2024/01/29 05:09:34;;;;;;;11.07;7.28;;;5.70;67.70;;;;;;5093487;28;20414;-71
2024/01/29 05:12:00;;;;;;;11.27;7.55;;;5.70;67.70;;;;;;5094197;28;20035;-71
2024/01/29 05:14:27;;;;;;;10.80;6.72;;;5.70;67.70;;;;;;5075470;28;20020;-71
2024/01/29 05:16:53;;;;;;;12.35;7.60;;;5.70;67.70;;;;;;5093339;28;20450;-71
2024/01/29 05:19:19;;;;;;;10.45;7.10;;;5.70;67.70;;;;;;5075354;28;20032;-70
2024/01/29 05:21:47;;;;;;;9.98;7.10;;;5.70;67.70;;;;;;5095567;28;20513;-71
2024/01/29 05:24:13;;;;;;;11.00;7.55;;;5.70;67.70;;;;;;5078677;28;20024;-71
2024/01/29 05:26:39;;;;;;;10.43;7.30;;;5.70;67.70;;;;;;5078846;28;20065;-71
2024/01/29 05:29:04;;;;;;;10.60;6.93;;;5.70;67.70;;;;;;5078611;28;20382;-71
2024/01/29 05:31:30;;;;;;;13.95;7.53;;;5.60;67.70;;;;;;5096792;28;20052;-71
2024/01/29 05:33:56;;;;;;;11.07;6.97;;;5.60;67.70;;;;;;5078719;28;20062;-71
2024/01/29 05:36:22;;;;;;;11.35;7.57;;;5.60;67.70;;;;;;5096616;28;20024;-72
2024/01/29 05:38:48;;;;;;;11.90;8.07;;;5.60;67.70;;;;;;5078222;28;20062;-71
2024/01/29 05:41:14;;;;;;;9.40;6.90;;;5.60;67.70;;;;;;5078317;28;20069;-72
2024/01/29 05:43:39;;;;;;;12.15;7.47;;;5.60;67.70;;;;;;5097047;28;20067;-70
2024/01/29 05:46:05;;;;;;;11.82;7.55;;;5.60;67.70;;;;;;5096477;28;20045;-70
2024/01/29 05:48:31;;;;;;;12.05;7.68;;;5.60;67.90;;;;;;5097999;28;20024;-72
2024/01/29 05:50:57;;;;;;;10.63;7.95;;;5.60;67.70;;;;;;5096032;28;20032;-70
2024/01/29 05:53:23;;;;;;;11.55;7.90;;;5.60;67.70;;;;;;5095888;28;20031;-69
2024/01/29 05:55:49;;;;;;;13.00;8.10;;;5.60;67.70;;;;;;5078034;28;20089;-71
2024/01/29 05:58:14;;;;;;;12.40;8.65;;;5.60;67.70;;;;;;5078135;28;20458;-66
2024/01/29 06:00:40;;;;;;;13.68;8.98;;;5.60;67.70;;;;;;5061295;28;20085;-65
2024/01/29 06:03:06;;;;;;;12.05;9.02;;;5.60;68.00;;;;;;5077925;28;20070;-66
2024/01/29 06:05:32;;;;;;;11.82;7.90;;;5.60;67.70;;;;;;5096131;28;20020;-68
2024/01/29 06:07:58;;;;;;;11.38;8.25;;;5.60;67.70;;;;;;5095980;28;20020;-67
2024/01/29 06:10:23;;;;;;;13.18;8.35;;;5.60;67.80;;;;;;5095629;28;20365;-67
2024/01/29 06:12:49;;;;;;;13.18;8.60;;;5.60;67.70;;;;;;5096452;28;20023;-67
2024/01/29 06:15:15;;;;;;;12.05;7.68;;;5.60;67.70;;;;;;5077891;28;20047;-71
2024/01/29 06:17:41;;;;;;;12.32;7.90;;;5.60;67.70;;;;;;5077781;28;20370;-72
2024/01/29 06:20:07;;;;;;;14.10;8.18;;;5.70;67.70;;;;;;5063609;28;20024;-70
2024/01/29 06:22:33;;;;;;;13.38;9.02;;;5.60;67.70;;;;;;5095686;28;20024;-70
2024/01/29 06:24:58;;;;;;;13.00;8.40;;;5.70;67.70;;;;;;5095701;28;20030;-74
2024/01/29 06:27:24;;;;;;;12.25;7.93;;;5.60;67.70;;;;;;5077962;28;20024;-75
2024/01/29 06:29:50;;;;;;;12.10;8.27;;;5.60;67.70;;;;;;5077571;28;20362;-67
2024/01/29 06:32:16;;;;;;;13.77;9.20;;;5.70;67.70;;;;;;5077219;28;20020;-67
2024/01/29 06:34:42;;;;;;;10.95;8.02;;;5.70;67.70;;;;;;5077449;28;20020;-67
2024/01/29 06:37:08;;;;;;;12.63;7.90;;;5.70;67.70;;;;;;5077370;28;20024;-67
2024/01/29 06:39:33;;;;;;;11.68;7.88;;;5.70;67.70;;;;;;5076457;28;20027;-69
2024/01/29 06:42:00;;;;;;;10.75;7.88;;;5.70;67.70;;;;;;5096315;28;20446;-69
2024/01/29 06:44:25;;;;;;;12.07;7.53;;;5.70;67.70;;;;;;5077590;28;20442;-69
2024/01/29 06:46:51;;;;;;;12.27;8.00;;;5.70;67.70;;;;;;5077670;28;20081;-68
2024/01/29 06:49:30;;;;;;;11.98;7.50;;;5.70;67.70;;;;;;5076994;28;20074;-68
2024/01/29 06:51:56;;;;;;;12.52;8.20;;;5.70;67.70;;;;;;5076599;28;20503;-67
2024/01/29 06:54:22;;;;;;;11.10;7.75;;;5.80;67.70;;;;;;5076570;28;20024;-68
2024/01/29 06:56:47;;;;;;;12.52;9.02;;;5.80;67.70;;;;;;5095297;28;20023;-68
2024/01/29 06:59:14;;;;;;;11.60;7.85;;;5.80;67.60;;;;;;5110874;28;20052;-68
2024/01/29 07:01:40;;;;;;;12.68;8.63;;;5.80;67.60;;;;;;5094947;28;20024;-69
2024/01/29 07:04:06;;;;;;;12.23;8.27;;;5.80;67.60;;;;;;5076819;28;20084;-69
2024/01/29 07:06:31;;;;;;;10.57;7.38;;;5.80;67.50;;;;;;5096301;28;20417;-70
2024/01/29 07:08:57;;;;;;;10.90;7.53;;;5.80;67.60;;;;;;5077518;28;20361;-67
2024/01/29 07:11:23;;;;;;;12.10;7.70;;;5.80;67.50;;;;;;5076797;28;20024;-68
2024/01/29 07:13:49;;;;;;;10.52;7.10;;;5.80;67.50;;;;;;5111522;28;20020;-68
2024/01/29 07:16:15;;;;;;;10.85;7.35;;;5.80;67.40;;;;;;5110661;28;20020;-67
2024/01/29 07:18:41;;;;;;;9.60;6.78;;;5.80;67.40;;;;;;5110237;28;20023;-69
2024/01/29 07:21:09;;;;;;;10.80;7.95;;;5.80;67.50;;;;;;5094658;28;20124;-66
2024/01/29 07:23:35;;;;;;;10.48;7.57;;;5.90;67.50;;;;;;5076606;28;20027;-68
2024/01/29 07:26:01;;;;;;;10.60;7.78;;;5.90;68.10;;;;;;5093976;28;20082;-67
2024/01/29 07:28:27;;;;;;;11.65;8.10;;;5.90;67.50;;;;;;5076415;28;20028;-67
2024/01/29 07:30:53;;;;;;;9.65;6.45;;;5.90;67.50;;;;;;5077131;28;20031;-69
2024/01/29 07:33:19;;;;;;;10.82;7.57;;;6.00;67.50;;;;;;5075894;28;20476;-67
2024/01/29 07:35:46;;;;;;;11.07;7.53;;;5.90;67.40;;;;;;5094123;28;20024;-69
2024/01/29 07:38:11;;;;;;;10.00;7.22;;;6.00;67.40;;;;;;5094501;28;20027;-68
2024/01/29 07:40:37;;;;;;;11.32;7.53;;;6.00;67.40;;;;;;5076478;28;20028;-67
2024/01/29 07:43:03;;;;;;;11.38;7.50;;;6.00;67.30;;;;;;5094070;28;20077;-68
2024/01/29 07:45:29;;;;;;;10.43;7.00;;;6.00;67.30;;;;;;5094359;28;20028;-67
2024/01/29 07:47:55;;;;;;;11.10;6.85;;;6.00;67.30;;;;;;5094411;28;20139;-66
2024/01/29 07:50:21;;;;;;;11.15;7.45;;;6.10;67.30;;;;;;5076196;28;20031;-69
2024/01/29 07:52:47;;;;;;;11.82;7.45;;;6.10;67.30;;;;;;5076156;28;20066;-69
2024/01/29 07:55:13;;;;;;;11.10;7.43;;;6.10;67.30;;;;;;5093690;28;20020;-69
2024/01/29 07:57:38;;;;;;;11.57;7.32;;;6.10;67.20;;;;;;5076064;28;20369;-68
2024/01/29 08:00:05;;;;;;;10.10;6.85;;;6.20;67.10;;;;;;5076930;28;20048;-68
2024/01/29 08:02:31;;;;;;;11.80;7.72;;;6.20;67.10;;;;;;5094238;28;20108;-68
2024/01/29 08:04:57;;;;;;;11.70;7.63;;;6.20;67.00;;;;;;5075990;28;20047;-68
2024/01/29 08:07:23;;;;;;;11.55;7.95;;;6.20;67.00;;;;;;5075480;28;20019;-69
2024/01/29 08:09:49;;;;;;;14.05;8.68;;;6.20;66.90;;;;;;5076340;28;20024;-79
2024/01/29 08:12:15;;;;;;;11.50;7.85;;;6.20;66.90;;;;;;5076534;28;20070;-82
2024/01/29 08:14:41;;;;;;;11.10;7.15;;;6.20;66.80;;;;;;5076774;28;20054;-83
2024/01/29 08:17:07;;;;;;;11.07;7.13;;;6.20;66.80;;;;;;5094854;28;20414;-81
2024/01/29 08:19:32;;;;;;;11.80;7.95;;;6.20;67.50;;;;;;5075966;28;20416;-81
2024/01/29 08:21:58;;;;;;;12.18;7.57;;;6.30;66.90;;;;;;5076089;28;20024;-80
2024/01/29 08:24:28;;;;;;;12.48;7.40;;;6.30;66.90;;;;;;5093574;28;20016;-83
2024/01/29 08:26:53;;;;;;;13.05;8.13;;;6.30;66.80;;;;;;5094270;28;20028;-84
2024/01/29 08:29:20;;;;;;;10.90;7.10;;;6.30;66.80;;;;;;5094273;28;20059;-79
2024/01/29 08:31:46;;;;;;;11.00;6.97;;;6.30;66.80;;;;;;5094194;28;20411;-79
2024/01/29 08:34:12;;;;;;;11.20;6.93;;;6.30;66.80;;;;;;5109492;28;20020;-79
2024/01/29 08:36:37;;;;;;;12.23;7.68;;;6.30;66.80;;;;;;5093738;28;20043;-79
2024/01/29 08:39:03;;;;;;;10.77;7.32;;;6.40;67.00;;;;;;5109655;28;20450;-78
2024/01/29 08:41:29;;;;;;;12.10;7.70;;;6.40;67.30;;;;;;5109564;28;20024;-77
2024/01/29 08:43:55;;;;;;;10.15;7.43;;;6.50;67.50;;;;;;5109697;28;20021;-79
2024/01/29 08:46:21;;;;;;;11.85;7.38;;;6.50;67.40;;;;;;5075068;28;20031;-78
2024/01/29 08:48:47;;;;;;;12.55;8.05;;;6.50;67.20;;;;;;5108938;28;20020;-80
2024/01/29 08:51:13;;;;;;;11.43;7.55;;;6.50;67.10;;;;;;5109387;28;20031;-78
2024/01/29 08:53:38;;;;;;;12.98;8.45;;;6.60;67.10;;;;;;5092995;28;20012;-83
2024/01/29 08:56:07;;;;;;;13.30;8.73;;;6.60;67.00;;;;;;5096340;28;20016;-79
2024/01/29 08:58:33;;;;;;;14.13;8.80;;;6.60;66.90;;;;;;5097421;28;20047;-80
2024/01/29 09:00:59;;;;;;;11.90;7.95;;;6.60;66.80;;;;;;5097306;28;20031;-79
2024/01/29 09:03:27;;;;;;;14.55;8.98;;;6.50;66.80;;;;;;5078814;28;20024;-81
2024/01/29 09:05:53;;;;;;;12.43;7.25;;;6.60;66.80;;;;;;5079208;28;20028;-87
2024/01/29 09:08:19;;;;;;;11.57;7.70;;;6.60;66.80;;;;;;5099470;28;20062;-87
2024/01/29 09:10:45;;;;;;;12.68;7.50;;;6.50;67.10;;;;;;5099880;28;20458;-88
2024/01/29 09:13:12;;;;;;;14.38;9.20;;;6.50;67.50;;;;;;5100609;28;20036;-86
2024/01/29 09:15:38;;;;;;;12.27;7.68;;;6.40;68.10;;;;;;5100580;28;20102;-87
2024/01/29 09:18:04;;;;;;;13.55;7.80;;;6.50;70.00;;;;;;5083928;28;20074;-85
2024/01/29 09:20:30;;;;;;;14.18;9.15;;;6.60;69.80;;;;;;5081780;28;20031;-80
2024/01/29 09:22:56;;;;;;;14.85;9.05;;;6.70;70.00;;;;;;5098013;28;20043;-80
2024/01/29 09:25:21;;;;;;;14.75;8.65;;;6.80;69.80;;;;;;5094138;28;20027;-84
2024/01/29 09:27:47;;;;;;;14.90;8.73;;;6.80;69.60;;;;;;5074821;28;20048;-84
2024/01/29 09:30:13;;;;;;;14.10;10.02;;;6.70;69.50;;;;;;5080499;28;20429;-88
2024/01/29 09:32:39;;;;;;;14.88;9.20;;;6.70;69.50;;;;;;5079819;28;20043;-85
2024/01/29 09:35:06;;;;;;;13.57;9.00;;;6.80;69.60;;;;;;5081333;28;20028;-85
2024/01/29 09:37:31;;;;;;;11.38;7.93;;;6.70;69.60;;;;;;5107240;28;20035;-88
2024/01/29 09:39:57;;;;;;;14.27;8.73;;;6.80;69.60;;;;;;5096035;28;20020;-87
2024/01/29 09:42:24;;;;;;;12.90;7.90;;;6.80;69.60;;;;;;5106331;28;20067;-84
2024/01/29 09:44:54;;;;;;;13.45;7.50;;;6.80;69.50;;;;;;5100645;28;20044;-81
2024/01/29 09:47:20;;;;;;;11.48;7.20;;;6.80;69.40;;;;;;5086387;28;20474;-80
2024/01/29 09:49:47;;;;;;;12.52;8.30;;;6.80;69.50;;;;;;5080455;28;20034;-81
2024/01/29 09:52:13;;;;;;;12.77;7.85;;;6.80;69.50;;;;;;5078891;28;20054;-78
2024/01/29 09:54:41;;;;;;;11.50;7.43;;;6.90;69.60;;;;;;5078752;28;20066;-79
2024/01/29 09:57:11;;;;;;;11.50;7.55;;;6.90;69.60;;;;;;5078716;28;20019;-83
2024/01/29 09:59:38;;;;;;;12.93;8.07;;;6.90;69.60;;;;;;5078981;28;20480;-82
2024/01/29 10:02:04;;;;;;;12.95;8.55;;;6.90;69.50;;;;;;5078480;28;20035;-83
2024/01/29 10:04:30;;;;;;;11.82;7.78;;;7.00;69.50;;;;;;5096750;28;20369;-80
2024/01/29 10:06:56;;;;;;;11.93;8.13;;;7.00;69.40;;;;;;5095792;28;20012;-83
2024/01/29 10:09:21;;;;;;;11.13;7.57;;;7.10;69.30;;;;;;5078223;28;20032;-82
2024/01/29 10:11:49;;;;;;;11.48;7.43;;;7.20;69.20;;;;;;5096300;28;20028;-82
2024/01/29 10:14:18;;;;;;;12.10;7.38;;;7.20;69.10;;;;;;5077659;28;20059;-82
2024/01/29 10:16:44;;;;;;;14.15;7.80;;;7.20;69.00;;;;;;5096107;28;20051;-82
2024/01/29 10:19:12;;;;;;;11.15;7.40;;;7.20;68.90;;;;;;5078584;28;20096;-83
2024/01/29 10:21:44;;;;;;;12.73;8.35;;;7.20;68.90;;;;;;5104122;28;20054;-80
2024/01/29 10:24:15;;;;;;;12.32;6.97;;;7.20;68.80;;;;;;5095529;28;20036;-81
2024/01/29 10:26:45;;;;;;;12.98;7.60;;;7.20;68.70;;;;;;5077011;28;20101;-83
2024/01/29 10:29:11;;;;;;;14.15;7.85;;;7.30;68.80;;;;;;5095369;28;20028;-80
2024/01/29 10:31:38;;;;;;;12.32;7.43;;;7.30;68.60;;;;;;5078063;28;20604;-81
2024/01/29 10:34:05;;;;;;;13.35;7.78;;;7.30;68.60;;;;;;5095661;28;20331;-80
2024/01/29 10:36:31;;;;;;;13.05;7.60;;;7.30;68.60;;;;;;5077427;28;20024;-82
2024/01/29 10:39:01;;;;;;;12.48;8.13;;;7.20;68.60;;;;;;5095456;28;20020;-80
2024/01/29 10:41:32;;;;;;;11.55;8.25;;;7.30;68.60;;;;;;5077914;28;20020;-82
2024/01/29 10:44:02;;;;;;;12.63;7.15;;;7.30;68.50;;;;;;5095680;28;20022;-83
2024/01/29 10:46:30;;;;;;;12.60;7.45;;;7.30;68.60;;;;;;5095840;28;20106;-81
2024/01/29 10:48:58;;;;;;;14.05;8.10;;;7.20;68.40;;;;;;5094883;28;20099;-81
2024/01/29 10:51:24;;;;;;;11.48;7.93;;;7.20;68.40;;;;;;5095408;28;20346;-82
2024/01/29 10:53:51;;;;;;;15.10;7.32;;;7.20;68.30;;;;;;5095610;28;20222;-82
2024/01/29 10:56:17;;;;;;;12.13;7.60;;;7.20;68.40;;;;;;5077654;28;20047;-81
2024/01/29 10:58:46;;;;;;;12.82;7.43;;;7.20;68.30;;;;;;5077246;28;20036;-83
2024/01/29 11:01:12;;;;;;;13.27;7.38;;;7.30;68.40;;;;;;5095404;28;20076;-81
2024/01/29 11:03:40;;;;;;;14.75;9.50;;;7.30;68.30;;;;;;5077425;28;20046;-81
2024/01/29 11:06:18;;;;;;;15.45;8.95;;;7.30;68.20;;;;;;5076826;28;20020;-77
2024/01/29 11:08:48;;;;;;;12.05;7.85;;;7.30;68.10;;;;;;5096839;28;20027;-79
2024/01/29 11:11:14;;;;;;;12.85;8.05;;;7.30;68.10;;;;;;5099856;28;20035;-85
2024/01/29 11:13:41;;;;;;;13.13;8.55;;;7.30;68.10;;;;;;5095292;28;20031;-73
2024/01/29 11:16:08;;;;;;;13.10;7.95;;;7.40;68.00;;;;;;5094813;28;20020;-76
2024/01/29 11:18:34;;;;;;;13.55;8.25;;;7.40;68.30;;;;;;5094207;28;20404;-77
2024/01/29 11:21:01;;;;;;;13.95;8.48;;;7.50;67.60;;;;;;5095750;28;20023;-73
2024/01/29 11:23:30;;;;;;;13.95;8.65;;;7.50;67.40;;;;;;5097443;28;20038;-78
2024/01/29 11:26:00;;;;;;;12.10;7.70;;;7.70;67.30;;;;;;5098689;28;20039;-79
2024/01/29 11:28:26;;;;;;;11.52;7.78;;;7.70;67.10;;;;;;5078865;28;20073;-77
2024/01/29 11:30:55;;;;;;;11.65;7.57;;;7.70;67.00;;;;;;5083593;28;20024;-77
2024/01/29 11:33:22;;;;;;;11.02;7.05;;;7.80;66.80;;;;;;5096922;28;20077;-78
2024/01/29 11:35:55;;;;;;;8.65;6.07;;;7.80;66.80;;;;;;5076855;28;20024;-75
2024/01/29 11:38:23;;;;;;;10.07;6.43;;;7.80;66.60;;;;;;5094651;28;20084;-78
2024/01/29 11:40:49;;;;;;;11.55;7.07;;;7.90;66.50;;;;;;5094890;28;20024;-76
2024/01/29 11:43:17;;;;;;;11.30;7.38;;;7.90;66.30;;;;;;5076352;28;20026;-72
2024/01/29 11:45:48;;;;;;;9.43;6.60;;;7.90;66.20;;;;;;5076230;28;20125;-73
2024/01/29 11:48:15;;;;;;;9.35;6.90;;;7.90;66.10;;;;;;5076118;28;20020;-72
2024/01/29 11:50:45;;;;;;;9.75;7.00;;;7.90;66.00;;;;;;5094229;28;20112;-74
2024/01/29 11:53:16;;;;;;;10.18;7.15;;;7.90;66.00;;;;;;5076157;28;20028;-74
2024/01/29 11:55:43;;;;;;;11.02;6.93;;;7.90;65.90;;;;;;5076433;28;20438;-76
2024/01/29 11:58:27;;;;;;;10.05;6.65;;;7.90;66.40;;;;;;5094242;28;20027;-77
2024/01/29 12:00:53;;;;;;;11.32;6.82;;;8.00;65.70;;;;;;5110609;28;20369;-73
2024/01/29 12:03:24;;;;;;;10.23;6.43;;;8.00;65.70;;;;;;5076053;28;20054;-77
2024/01/29 12:05:53;;;;;;;8.80;6.38;;;8.00;65.50;;;;;;5076039;28;20030;-77
2024/01/29 12:08:21;;;;;;;9.15;6.45;;;8.00;65.40;;;;;;5093918;28;20381;-78
2024/01/29 12:10:48;;;;;;;9.75;6.40;;;8.00;65.40;;;;;;5075962;28;20135;-76
2024/01/29 12:13:15;;;;;;;8.82;5.93;;;8.00;65.30;;;;;;5093816;28;20103;-75
2024/01/29 12:15:41;;;;;;;10.48;6.78;;;7.90;65.30;;;;;;5075569;28;20032;-73
2024/01/29 12:18:20;;;;;;;10.23;6.20;;;7.90;65.20;;;;;;5075692;28;20024;-71
2024/01/29 12:20:50;;;;;;;8.35;5.95;;;7.90;65.20;;;;;;5075590;28;20463;-73
2024/01/29 12:23:17;;;;;;;9.40;5.95;;;7.90;65.10;;;;;;5075792;28;20024;-77
2024/01/29 12:25:50;;;;;;;9.10;6.10;;;7.80;65.00;;;;;;5075490;28;20016;-71
2024/01/29 12:28:16;;;;;;;8.45;5.93;;;7.90;65.00;;;;;;5075816;28;20031;-72
2024/01/29 12:30:42;;;;;;;8.63;5.80;;;7.90;65.00;;;;;;5111761;28;20028;-72
2024/01/29 12:33:17;;;;;;;9.45;5.95;;;7.90;65.00;;;;;;5080182;28;20035;-72
2024/01/29 12:35:43;;;;;;;9.57;6.60;;;7.90;65.00;;;;;;5098174;28;20020;-70
2024/01/29 12:38:12;;;;;;;9.10;6.20;;;7.90;64.90;;;;;;5079872;28;20027;-76
2024/01/29 12:40:41;;;;;;;9.35;6.03;;;7.80;64.80;;;;;;5079905;28;20122;-75
2024/01/29 12:43:09;;;;;;;8.30;5.85;;;7.90;64.70;;;;;;5097889;28;20077;-74